createdAt,value
2022-09-03T00:01:52.853Z,2.10
2022-09-03T00:07:08.799Z,2.30
2022-09-03T00:09:47.155Z,2.60
2022-09-03T00:12:24.018Z,2.10
2022-09-03T00:14:58.692Z,2.10
2022-09-03T00:18:07.482Z,2.40
2022-09-03T00:21:08.360Z,2.30
2022-09-03T00:23:40.885Z,2.40
2022-09-03T00:26:12.541Z,2.30
2022-09-03T00:29:20.051Z,2.40
2022-09-03T00:31:57.064Z,2.40
2022-09-03T00:34:40.810Z,2.60
2022-09-03T00:37:14.489Z,2.30
2022-09-03T00:39:44.429Z,2.30
2022-09-03T00:42:33.750Z,2.50
2022-09-03T00:45:08.058Z,2.30
2022-09-03T00:48:12.261Z,2.60
2022-09-03T00:51:05.025Z,2.70
2022-09-03T00:53:58.927Z,2.50
2022-09-03T00:56:33.017Z,2.40
2022-09-03T00:59:12.227Z,2.20
2022-09-03T01:02:02.266Z,2.40
2022-09-03T01:04:52.623Z,2.60
2022-09-03T01:07:35.816Z,2.70
2022-09-03T01:10:27.501Z,2.40
2022-09-03T01:13:07.157Z,2.40
2022-09-03T01:15:56.914Z,2.50
2022-09-03T01:18:43.894Z,2.50
2022-09-03T01:21:34.919Z,2.30
2022-09-03T01:24:30.074Z,2.50
2022-09-03T01:27:26.672Z,2.50
2022-09-03T01:30:04.272Z,2.70
2022-09-03T01:32:55.480Z,2.50
2022-09-03T01:35:53.704Z,2.50
2022-09-03T01:38:35.020Z,2.50
2022-09-03T01:41:34.280Z,2.80
2022-09-03T01:44:09.583Z,2.30
2022-09-03T01:46:41.160Z,2.50
2022-09-03T01:49:35.162Z,2.60
2022-09-03T01:52:29.899Z,2.50
2022-09-03T01:55:10.122Z,2.80
2022-09-03T01:57:49.041Z,2.60
2022-09-03T02:00:23.325Z,2.70
2022-09-03T02:02:52.990Z,2.50
2022-09-03T02:05:25.058Z,2.60
2022-09-03T02:08:06.958Z,2.80
2022-09-03T02:10:44.393Z,2.80
2022-09-03T02:13:27.003Z,2.60
2022-09-03T02:16:01.164Z,3.00
2022-09-03T02:18:34.184Z,3.30
2022-09-03T02:21:02.329Z,3.40
2022-09-03T02:23:30.944Z,2.90
2022-09-03T02:26:02.564Z,3.10
2022-09-03T02:28:33.210Z,3.10
2022-09-03T02:31:01.273Z,3.30
2022-09-03T02:33:31.530Z,2.80
2022-09-03T02:35:59.749Z,3.10
2022-09-03T02:38:28.562Z,3.10
2022-09-03T02:40:56.537Z,3.10
2022-09-03T02:43:35.391Z,3.20
2022-09-03T02:46:08.223Z,3.40
2022-09-03T02:48:36.405Z,3.30
2022-09-03T02:51:14.115Z,3.20
2022-09-03T02:53:43.352Z,3.90
2022-09-03T02:56:12.470Z,3.70
2022-09-03T02:58:41.186Z,3.70
2022-09-03T03:01:09.198Z,3.70
2022-09-03T03:03:37.366Z,3.80
2022-09-03T03:06:07.186Z,4.10
2022-09-03T03:08:35.325Z,4.10
2022-09-03T03:11:03.382Z,3.80
2022-09-03T03:13:32.420Z,4.00
2022-09-03T03:16:08.656Z,4.60
2022-09-03T03:18:36.750Z,4.50
2022-09-03T03:21:10.344Z,4.60
2022-09-03T03:23:39.765Z,4.80
2022-09-03T03:26:10.807Z,4.20
2022-09-03T03:28:39.418Z,4.50
2022-09-03T03:31:13.204Z,4.70
2022-09-03T03:33:42.175Z,4.60
2022-09-03T03:36:12.376Z,4.70
2022-09-03T03:38:42.298Z,4.30
2022-09-03T03:41:12.973Z,4.50
2022-09-03T03:43:40.945Z,4.40
2022-09-03T03:46:11.044Z,4.40
2022-09-03T03:48:39.647Z,4.80
2022-09-03T03:51:09.981Z,5.00
2022-09-03T03:53:38.948Z,4.70
2022-09-03T03:56:11.102Z,4.70
2022-09-03T03:58:44.344Z,4.80
2022-09-03T04:01:21.333Z,4.50
2022-09-03T04:03:49.932Z,5.00
2022-09-03T04:06:20.425Z,5.70
2022-09-03T04:08:49.732Z,5.10
2022-09-03T04:11:21.500Z,4.90
2022-09-03T04:13:51.194Z,5.30
2022-09-03T04:16:22.219Z,5.30
2022-09-03T04:18:51.713Z,5.10
2022-09-03T04:21:28.715Z,4.80
2022-09-03T04:23:58.430Z,4.40
2022-09-03T04:26:32.030Z,5.00
2022-09-03T04:29:02.454Z,4.70
2022-09-03T04:31:31.765Z,5.00
2022-09-03T04:34:00.119Z,4.80
2022-09-03T04:36:30.975Z,4.80
2022-09-03T04:39:01.815Z,4.70
2022-09-03T04:41:31.587Z,4.80
2022-09-03T04:44:01.003Z,4.90
2022-09-03T04:46:33.945Z,4.60
2022-09-03T04:49:03.303Z,4.90
2022-09-03T04:51:31.914Z,4.60
2022-09-03T04:54:02.310Z,4.90
2022-09-03T04:56:33.575Z,5.10
2022-09-03T04:59:04.527Z,4.80
2022-09-03T05:01:36.153Z,4.50
2022-09-03T05:04:05.237Z,4.90
2022-09-03T05:06:35.009Z,5.30
2022-09-03T05:09:04.346Z,4.90
2022-09-03T05:11:32.516Z,5.30
2022-09-03T05:14:01.217Z,4.70
2022-09-03T05:16:31.239Z,5.00
2022-09-03T05:19:01.556Z,5.80
2022-09-03T05:21:30.143Z,5.40
2022-09-03T05:24:00.035Z,5.00
2022-09-03T05:26:30.996Z,4.90
2022-09-03T05:29:01.699Z,4.90
2022-09-03T05:31:32.261Z,4.60
2022-09-03T05:34:04.097Z,5.20
2022-09-03T05:36:37.316Z,5.10
2022-09-03T05:39:06.188Z,4.70
2022-09-03T05:41:34.759Z,4.70
2022-09-03T05:44:04.253Z,4.90
2022-09-03T05:46:35.551Z,5.10
2022-09-03T05:49:06.216Z,5.20
2022-09-03T05:51:36.454Z,4.80
2022-09-03T05:54:05.374Z,5.70
2022-09-03T05:56:33.802Z,7.40
2022-09-03T05:59:06.932Z,7.40
2022-09-03T06:01:51.577Z,9.20
2022-09-03T06:04:22.037Z,8.90
2022-09-03T06:06:50.209Z,8.40
2022-09-03T06:09:21.280Z,7.50
2022-09-03T06:11:52.604Z,7.40
2022-09-03T06:14:22.262Z,6.80
2022-09-03T06:16:53.083Z,7.00
2022-09-03T06:19:21.348Z,6.90
2022-09-03T06:21:49.343Z,6.80
2022-09-03T06:24:26.703Z,5.90
2022-09-03T06:26:57.080Z,5.30
2022-09-03T06:29:26.069Z,5.50
2022-09-03T06:31:54.090Z,5.60
2022-09-03T06:34:23.428Z,5.30
2022-09-03T06:36:51.885Z,5.30
2022-09-03T06:39:23.167Z,5.20
2022-09-03T06:41:52.310Z,5.00
2022-09-03T06:44:26.221Z,6.30
2022-09-03T06:46:54.337Z,4.90
2022-09-03T06:49:22.509Z,5.00
2022-09-03T06:51:50.595Z,5.00
2022-09-03T06:54:18.694Z,4.70
2022-09-03T06:56:46.648Z,4.90
2022-09-03T06:59:15.504Z,5.10
2022-09-03T07:01:46.224Z,5.30
2022-09-03T07:04:20.164Z,4.90
2022-09-03T07:06:48.351Z,4.70
2022-09-03T07:09:18.535Z,4.30
2022-09-03T07:11:48.089Z,4.50
2022-09-03T07:14:19.077Z,4.20
2022-09-03T07:16:48.932Z,4.40
2022-09-03T07:19:17.574Z,4.80
2022-09-03T07:21:50.247Z,4.90
2022-09-03T07:24:22.228Z,4.40
2022-09-03T07:26:50.738Z,4.70
2022-09-03T07:29:21.988Z,4.50
2022-09-03T07:31:52.128Z,4.60
2022-09-03T07:34:25.426Z,4.90
2022-09-03T07:36:54.913Z,4.80
2022-09-03T07:39:23.089Z,4.40
2022-09-03T07:41:51.235Z,4.40
2022-09-03T07:44:20.536Z,4.60
2022-09-03T07:46:51.301Z,4.80
2022-09-03T07:49:22.285Z,5.00
2022-09-03T07:51:53.054Z,5.30
2022-09-03T07:54:22.135Z,4.90
2022-09-03T07:56:50.141Z,4.40
2022-09-03T07:59:19.272Z,4.10
2022-09-03T08:01:47.237Z,4.40
2022-09-03T08:04:15.262Z,4.80
2022-09-03T08:06:43.296Z,4.90
2022-09-03T08:09:13.904Z,4.20
2022-09-03T08:11:43.833Z,4.30
2022-09-03T08:14:13.935Z,4.90
2022-09-03T08:16:48.320Z,5.70
2022-09-03T08:19:20.892Z,6.20
2022-09-03T08:21:48.900Z,5.30
2022-09-03T08:24:21.059Z,5.50
2022-09-03T08:26:52.225Z,6.50
2022-09-03T08:29:22.267Z,6.20
2022-09-03T08:31:50.688Z,5.70
2022-09-03T08:34:19.237Z,5.70
2022-09-03T08:36:47.667Z,6.00
2022-09-03T08:39:16.123Z,5.50
2022-09-03T08:41:53.291Z,5.10
2022-09-03T08:44:51.023Z,4.20
2022-09-03T08:47:38.792Z,4.40
2022-09-03T08:50:19.565Z,4.40
2022-09-03T08:52:55.031Z,4.00
2022-09-03T08:55:26.247Z,4.20
2022-09-03T08:57:57.886Z,3.60
2022-09-03T09:00:35.269Z,3.40
2022-09-03T09:03:45.638Z,4.20
2022-09-03T09:06:38.632Z,3.60
2022-09-03T09:09:15.712Z,3.90
2022-09-03T09:12:11.723Z,3.90
2022-09-03T09:15:02.805Z,3.90
2022-09-03T09:18:02.950Z,3.80
2022-09-03T09:20:49.611Z,4.00
2022-09-03T09:23:33.571Z,3.40
2022-09-03T09:28:37.728Z,3.30
2022-09-03T09:31:12.666Z,3.20
2022-09-03T09:33:40.962Z,3.60
2022-09-03T09:36:13.801Z,4.10
2022-09-03T09:38:43.269Z,4.00
2022-09-03T09:41:20.385Z,3.60
2022-09-03T09:43:48.388Z,3.70
2022-09-03T09:46:30.881Z,3.80
2022-09-03T09:48:59.010Z,3.70
2022-09-03T09:51:31.946Z,4.10
2022-09-03T09:54:08.833Z,3.60
2022-09-03T09:56:36.785Z,3.20
2022-09-03T09:59:10.046Z,2.80
2022-09-03T10:01:44.910Z,2.90
2022-09-03T10:04:33.014Z,2.60
2022-09-03T10:07:25.398Z,2.80
2022-09-03T10:10:07.130Z,3.20
2022-09-03T10:12:45.651Z,2.90
2022-09-03T10:15:29.079Z,4.30
2022-09-03T10:18:00.172Z,2.80
2022-09-03T10:20:47.459Z,3.10
2022-09-03T10:23:28.452Z,3.40
2022-09-03T10:26:13.450Z,3.50
2022-09-03T10:28:43.061Z,2.80
2022-09-03T10:31:36.973Z,3.30
2022-09-03T10:34:18.862Z,2.50
2022-09-03T10:36:59.757Z,2.30
2022-09-03T10:39:51.626Z,2.50
2022-09-03T10:42:43.712Z,2.50
2022-09-03T10:45:29.123Z,2.30
2022-09-03T10:48:16.226Z,2.70
2022-09-03T10:51:05.926Z,2.40
2022-09-03T10:54:18.936Z,2.00
2022-09-03T10:57:17.634Z,2.20
2022-09-03T11:00:05.951Z,2.20
2022-09-03T11:02:59.054Z,2.50
2022-09-03T11:05:38.790Z,2.40
2022-09-03T11:08:17.169Z,3.50
2022-09-03T11:10:58.861Z,2.90
2022-09-03T11:13:54.246Z,2.30
2022-09-03T11:16:34.436Z,2.10
2022-09-03T11:19:05.805Z,2.30
2022-09-03T11:21:38.198Z,1.80
2022-09-03T11:24:13.746Z,2.00
2022-09-03T11:26:46.149Z,2.00
2022-09-03T11:29:32.680Z,2.20
2022-09-03T11:32:11.120Z,2.00
2022-09-03T11:34:51.457Z,1.90
2022-09-03T11:37:21.472Z,2.30
2022-09-03T11:40:08.905Z,2.20
2022-09-03T11:42:41.207Z,2.60
2022-09-03T11:45:21.360Z,2.60
2022-09-03T11:47:52.057Z,2.10
2022-09-03T11:50:23.018Z,2.40
2022-09-03T11:52:54.422Z,2.00
2022-09-03T11:55:43.358Z,2.70
2022-09-03T11:58:27.308Z,2.40
2022-09-03T12:00:56.764Z,2.60
2022-09-03T12:03:47.792Z,2.30
2022-09-03T12:06:34.093Z,1.90
2022-09-03T12:09:22.352Z,1.90
2022-09-03T12:12:29.230Z,2.00
2022-09-03T12:15:51.299Z,1.80
2022-09-03T12:18:31.364Z,1.90
2022-09-03T12:21:00.378Z,1.90
2022-09-03T12:23:30.891Z,3.10
2022-09-03T12:26:15.184Z,2.70
2022-09-03T12:28:50.135Z,2.80
2022-09-03T12:31:21.871Z,2.40
2022-09-03T12:34:07.902Z,2.50
2022-09-03T12:36:48.135Z,2.50
2022-09-03T12:42:20.955Z,2.20
2022-09-03T12:44:49.748Z,2.60
2022-09-03T12:47:38.123Z,2.30
2022-09-03T12:50:12.507Z,2.90
2022-09-03T12:52:54.649Z,2.40
2022-09-03T12:55:27.488Z,1.90
2022-09-03T12:58:05.154Z,2.20
2022-09-03T13:00:37.594Z,2.70
2022-09-03T13:03:19.318Z,2.50
2022-09-03T13:05:57.303Z,2.60
2022-09-03T13:08:33.964Z,2.30
2022-09-03T13:11:05.387Z,2.70
2022-09-03T13:13:37.263Z,1.90
2022-09-03T13:16:11.309Z,1.70
2022-09-03T13:18:45.425Z,1.90
2022-09-03T13:21:22.605Z,1.50
2022-09-03T13:24:08.803Z,1.60
2022-09-03T13:26:49.810Z,1.70
2022-09-03T13:29:40.495Z,1.50
2022-09-03T13:32:31.190Z,1.60
2022-09-03T13:35:07.201Z,1.80
2022-09-03T13:37:45.524Z,1.60
2022-09-03T13:40:31.807Z,1.60
2022-09-03T13:43:27.149Z,1.50
2022-09-03T13:46:01.906Z,2.20
2022-09-03T13:49:01.029Z,1.70
2022-09-03T13:52:04.293Z,1.20
2022-09-03T13:54:49.001Z,1.30
2022-09-03T13:57:24.190Z,1.60
2022-09-03T14:00:11.022Z,1.60
2022-09-03T14:03:07.214Z,2.10
2022-09-03T14:06:03.342Z,2.40
2022-09-03T14:09:02.282Z,1.50
2022-09-03T14:11:51.926Z,1.50
2022-09-03T14:14:49.369Z,1.70
2022-09-03T14:17:23.917Z,2.00
2022-09-03T14:20:07.924Z,2.00
2022-09-03T14:22:48.457Z,1.90
2022-09-03T14:25:19.734Z,2.10
2022-09-03T14:27:48.764Z,1.70
2022-09-03T14:30:16.713Z,1.70
2022-09-03T14:32:57.938Z,1.50
2022-09-03T14:35:47.294Z,1.40
2022-09-03T14:38:20.539Z,1.60
2022-09-03T14:41:13.970Z,1.50
2022-09-03T14:43:56.412Z,1.60
2022-09-03T14:46:35.585Z,1.70
2022-09-03T14:49:18.933Z,1.50
2022-09-03T14:51:52.848Z,1.60
2022-09-03T14:54:40.036Z,1.70
2022-09-03T14:58:04.804Z,1.60
2022-09-03T15:01:01.829Z,1.70
2022-09-03T15:03:54.800Z,1.80
2022-09-03T15:06:34.734Z,1.70
2022-09-03T15:09:37.350Z,1.90
2022-09-03T15:12:30.878Z,1.70
2022-09-03T15:15:06.622Z,2.20
2022-09-03T15:17:55.836Z,2.20
2022-09-03T15:20:52.564Z,1.90
2022-09-03T15:23:37.821Z,2.60
2022-09-03T15:26:47.427Z,2.70
2022-09-03T15:29:28.127Z,3.30
2022-09-03T15:32:05.314Z,2.30
2022-09-03T15:35:05.543Z,2.30
2022-09-03T15:37:49.132Z,2.40
2022-09-03T15:40:26.490Z,2.50
2022-09-03T15:43:30.140Z,2.00
2022-09-03T15:46:13.939Z,2.50
2022-09-03T15:51:36.689Z,2.10
2022-09-03T15:54:16.328Z,2.20
2022-09-03T15:56:59.959Z,2.10
2022-09-03T15:59:58.789Z,2.10
2022-09-03T16:02:33.750Z,2.10
2022-09-03T16:05:08.907Z,2.80
2022-09-03T16:07:36.902Z,2.00
2022-09-03T16:10:30.495Z,1.90
2022-09-03T16:13:38.717Z,2.40
2022-09-03T16:16:11.510Z,2.00
2022-09-03T16:18:49.916Z,2.20
2022-09-03T16:21:38.940Z,2.20
2022-09-03T16:24:19.186Z,2.40
2022-09-03T16:26:47.102Z,2.20
2022-09-03T16:29:17.987Z,2.20
2022-09-03T16:32:05.031Z,2.30
2022-09-03T16:35:10.288Z,2.40
2022-09-03T16:38:22.556Z,2.90
2022-09-03T16:41:18.951Z,2.50
2022-09-03T16:44:22.908Z,2.10
2022-09-03T16:47:10.430Z,2.30
2022-09-03T16:49:51.764Z,2.60
2022-09-03T16:52:44.862Z,2.60
2022-09-03T16:55:24.913Z,2.40
2022-09-03T16:58:19.886Z,2.50
2022-09-03T17:01:17.321Z,2.50
2022-09-03T17:03:52.555Z,2.30
2022-09-03T17:06:50.998Z,2.60
2022-09-03T17:09:34.728Z,2.20
2022-09-03T17:12:07.931Z,2.20
2022-09-03T17:14:38.812Z,2.10
2022-09-03T17:17:36.079Z,1.90
2022-09-03T17:20:47.167Z,1.90
2022-09-03T17:23:29.286Z,2.10
2022-09-03T17:26:00.470Z,2.00
2022-09-03T17:28:43.422Z,2.10
2022-09-03T17:31:51.812Z,2.10
2022-09-03T17:34:41.906Z,2.10
2022-09-03T17:37:34.785Z,1.90
2022-09-03T17:40:27.748Z,2.20
2022-09-03T17:43:17.187Z,1.90
2022-09-03T17:46:13.708Z,1.90
2022-09-03T17:48:50.667Z,2.10
2022-09-03T17:51:24.443Z,2.10
2022-09-03T17:53:59.535Z,2.20
2022-09-03T17:56:33.840Z,2.10
2022-09-03T17:59:15.656Z,2.20
2022-09-03T18:02:25.304Z,1.90
2022-09-03T18:05:03.423Z,2.40
2022-09-03T18:07:54.915Z,2.00
2022-09-03T18:10:45.291Z,2.20
2022-09-03T18:13:23.522Z,2.00
2022-09-03T18:16:06.552Z,1.80
2022-09-03T18:18:42.986Z,1.90
2022-09-03T18:21:32.913Z,1.90
2022-09-03T18:24:23.121Z,1.90
2022-09-03T18:27:17.955Z,1.60
2022-09-03T18:30:25.214Z,1.80
2022-09-03T18:33:11.876Z,2.10
2022-09-03T18:35:58.439Z,2.00
2022-09-03T18:38:49.755Z,2.30
2022-09-03T18:41:59.693Z,2.20
2022-09-03T18:44:46.329Z,2.00
2022-09-03T18:48:05.476Z,2.00
2022-09-03T18:51:12.158Z,1.90
2022-09-03T18:54:27.133Z,2.10
2022-09-03T18:57:13.796Z,2.10
2022-09-03T19:00:00.536Z,2.20
2022-09-03T19:03:06.186Z,2.20
2022-09-03T19:05:56.926Z,2.40
2022-09-03T19:08:55.615Z,2.50
2022-09-03T19:11:56.048Z,2.50
2022-09-03T19:14:56.847Z,2.90
2022-09-03T19:18:25.748Z,2.70
2022-09-03T19:21:23.404Z,2.60
2022-09-03T19:24:15.949Z,2.70
2022-09-03T19:27:39.523Z,2.60
2022-09-03T19:30:40.522Z,2.90
2022-09-03T19:33:42.371Z,2.90
2022-09-03T19:36:34.155Z,2.60
2022-09-03T19:39:36.069Z,2.90
2022-09-03T19:42:37.812Z,2.60
2022-09-03T19:45:41.444Z,2.90
2022-09-03T19:48:28.087Z,2.60
2022-09-03T19:51:43.917Z,2.90
2022-09-03T19:54:30.733Z,2.40
2022-09-03T19:57:17.435Z,2.70
2022-09-03T20:00:08.103Z,2.80
2022-09-03T20:03:00.852Z,2.80
2022-09-03T20:05:47.694Z,2.70
2022-09-03T20:08:35.863Z,3.40
2022-09-03T20:11:05.532Z,3.30
2022-09-03T20:13:54.573Z,4.20
2022-09-03T20:17:13.876Z,3.70
2022-09-03T20:20:03.409Z,3.10
2022-09-03T20:22:39.971Z,3.30
2022-09-03T20:25:26.890Z,3.40
2022-09-03T20:28:00.732Z,3.50
2022-09-03T20:30:42.388Z,3.90
2022-09-03T20:33:22.978Z,4.60
2022-09-03T20:36:29.715Z,4.40
2022-09-03T20:39:15.866Z,4.80
2022-09-03T20:42:13.572Z,4.80
2022-09-03T20:44:52.918Z,4.60
2022-09-03T20:47:28.188Z,5.00
2022-09-03T20:50:15.272Z,5.30
2022-09-03T20:52:49.045Z,5.50
2022-09-03T20:55:33.561Z,5.90
2022-09-03T20:58:18.590Z,5.90
2022-09-03T21:00:55.049Z,5.50
2022-09-03T21:03:28.570Z,5.50
2022-09-03T21:06:21.496Z,4.20
2022-09-03T21:08:55.182Z,5.00
2022-09-03T21:14:21.929Z,5.40
2022-09-03T21:17:00.252Z,5.00
2022-09-03T21:19:43.924Z,5.10
2022-09-03T21:22:39.883Z,5.30
2022-09-03T21:25:14.135Z,5.80
2022-09-03T21:27:48.851Z,5.90
2022-09-03T21:30:19.610Z,6.10
2022-09-03T21:33:24.341Z,4.70
2022-09-03T21:36:01.867Z,5.10
2022-09-03T21:38:35.679Z,4.80
2022-09-03T21:41:14.791Z,5.60
2022-09-03T21:44:12.469Z,5.90
2022-09-03T21:46:58.995Z,5.50
2022-09-03T21:49:33.649Z,4.80
2022-09-03T21:52:12.968Z,5.30
2022-09-03T21:54:41.146Z,5.80
2022-09-03T21:57:22.319Z,5.20
2022-09-03T22:00:19.795Z,5.00
2022-09-03T22:02:50.142Z,5.40
2022-09-03T22:05:18.995Z,5.40
2022-09-03T22:08:18.013Z,5.50
2022-09-03T22:10:51.756Z,7.00
2022-09-03T22:13:44.028Z,5.10
2022-09-03T22:16:23.815Z,5.70
2022-09-03T22:18:54.234Z,5.60
2022-09-03T22:22:11.124Z,6.70
2022-09-03T22:25:04.804Z,5.70
2022-09-03T22:27:50.567Z,5.00
2022-09-03T22:30:22.561Z,5.00
2022-09-03T22:33:24.942Z,4.70
2022-09-03T22:36:11.843Z,4.70
2022-09-03T22:38:40.963Z,4.80
2022-09-03T22:41:08.802Z,4.40
2022-09-03T22:43:52.397Z,4.40
2022-09-03T22:46:23.634Z,4.30
2022-09-03T22:49:28.049Z,4.50
2022-09-03T22:52:25.344Z,4.20
2022-09-03T22:55:02.801Z,3.90
2022-09-03T22:57:37.264Z,4.20
2022-09-03T23:00:09.109Z,4.00
2022-09-03T23:02:40.497Z,4.10
2022-09-03T23:05:23.588Z,4.30
2022-09-03T23:08:09.723Z,4.20
2022-09-03T23:10:53.972Z,3.90
2022-09-03T23:13:46.954Z,4.20
2022-09-03T23:16:52.992Z,4.40
2022-09-03T23:19:40.628Z,4.20
2022-09-03T23:22:40.863Z,4.30
2022-09-03T23:25:20.202Z,4.10
2022-09-03T23:27:58.809Z,3.70
2022-09-03T23:30:26.813Z,3.50
2022-09-03T23:32:59.884Z,3.80
2022-09-03T23:35:30.166Z,3.70
2022-09-03T23:38:19.825Z,3.90
2022-09-03T23:40:49.973Z,3.20
2022-09-03T23:43:23.760Z,3.40
2022-09-03T23:48:53.403Z,3.30
2022-09-03T23:51:39.735Z,3.30
2022-09-03T23:54:19.654Z,3.30
2022-09-03T23:56:50.641Z,3.50
2022-09-03T23:59:57.620Z,3.30
